createdAt,value
2022-07-27T00:01:06.072Z,100.00
2022-07-27T00:04:11.763Z,100.00
2022-07-27T00:07:17.353Z,100.00
2022-07-27T00:10:23.618Z,100.00
2022-07-27T00:13:30.083Z,100.00
2022-07-27T00:16:37.030Z,100.00
2022-07-27T00:19:43.434Z,100.00
2022-07-27T00:22:49.785Z,100.00
2022-07-27T00:25:55.587Z,100.00
2022-07-27T00:29:01.495Z,100.00
2022-07-27T00:32:12.340Z,100.00
2022-07-27T00:35:14.748Z,100.00
2022-07-27T00:38:20.444Z,100.00
2022-07-27T00:41:25.818Z,100.00
2022-07-27T00:44:43.351Z,100.00
2022-07-27T00:47:54.568Z,100.00
2022-07-27T00:50:57.905Z,100.00
2022-07-27T00:54:03.748Z,100.00
2022-07-27T00:57:08.831Z,100.00
2022-07-27T01:00:14.137Z,100.00
2022-07-27T01:03:20.654Z,100.00
2022-07-27T01:06:28.374Z,100.00
2022-07-27T01:09:53.131Z,100.00
2022-07-27T01:13:00.289Z,100.00
2022-07-27T01:15:59.960Z,100.00
2022-07-27T01:19:05.459Z,100.00
2022-07-27T01:22:12.565Z,100.00
2022-07-27T01:25:19.333Z,100.00
2022-07-27T01:28:25.048Z,100.00
2022-07-27T01:31:30.570Z,100.00
2022-07-27T01:34:40.031Z,100.00
2022-07-27T01:37:48.106Z,100.00
2022-07-27T01:40:55.147Z,100.00
2022-07-27T01:44:02.071Z,100.00
2022-07-27T01:47:14.604Z,100.00
2022-07-27T01:50:14.891Z,100.00
2022-07-27T01:53:21.651Z,100.00
2022-07-27T01:56:28.325Z,100.00
2022-07-27T01:59:35.987Z,100.00
2022-07-27T02:02:41.950Z,100.00
2022-07-27T02:05:49.121Z,100.00
2022-07-27T02:08:53.833Z,100.00
2022-07-27T02:12:10.541Z,100.00
2022-07-27T02:15:26.465Z,100.00
2022-07-27T02:18:36.890Z,100.00
2022-07-27T02:21:41.374Z,100.00
2022-07-27T02:24:47.842Z,100.00
2022-07-27T02:27:55.031Z,100.00
2022-07-27T02:31:01.009Z,100.00
2022-07-27T02:34:06.727Z,100.00
2022-07-27T02:37:06.871Z,100.00
2022-07-27T02:40:12.515Z,100.00
2022-07-27T02:43:10.649Z,100.00
2022-07-27T02:46:16.092Z,100.00
2022-07-27T02:49:21.104Z,100.00
2022-07-27T02:52:27.259Z,100.00
2022-07-27T02:55:32.761Z,100.00
2022-07-27T02:58:38.605Z,100.00
2022-07-27T03:01:44.512Z,100.00
2022-07-27T03:04:37.246Z,97.71
2022-07-27T03:07:43.195Z,96.12
2022-07-27T03:10:49.815Z,95.02
2022-07-27T03:13:56.146Z,93.99
2022-07-27T03:17:02.178Z,92.91
2022-07-27T03:20:10.657Z,91.67
2022-07-27T03:23:15.922Z,91.03
2022-07-27T03:26:21.266Z,90.46
2022-07-27T03:29:29.332Z,89.92
2022-07-27T03:32:33.814Z,89.17
2022-07-27T03:35:39.033Z,88.22
2022-07-27T03:38:44.241Z,87.04
2022-07-27T03:41:42.680Z,86.04
2022-07-27T03:44:48.192Z,85.20
2022-07-27T03:47:54.417Z,84.44
2022-07-27T03:51:00.072Z,83.85
2022-07-27T03:54:07.118Z,83.87
2022-07-27T03:57:13.229Z,83.80
2022-07-27T04:00:20.972Z,83.31
2022-07-27T04:03:19.890Z,83.14
2022-07-27T04:06:26.161Z,82.59
2022-07-27T04:09:31.936Z,83.08
2022-07-27T04:12:39.188Z,82.98
2022-07-27T04:15:45.578Z,83.29
2022-07-27T04:18:50.958Z,83.44
2022-07-27T04:21:56.753Z,83.43
2022-07-27T04:25:02.641Z,83.08
2022-07-27T04:28:07.806Z,82.21
2022-07-27T04:31:14.512Z,81.24
2022-07-27T04:34:21.476Z,81.24
2022-07-27T04:37:29.163Z,81.06
2022-07-27T04:40:34.815Z,79.57
2022-07-27T04:43:40.750Z,79.04
2022-07-27T04:46:45.361Z,77.99
2022-07-27T04:49:51.060Z,77.32
2022-07-27T04:52:56.523Z,76.67
2022-07-27T04:56:02.214Z,76.30
2022-07-27T04:59:10.073Z,76.48
2022-07-27T05:02:16.413Z,75.77
2022-07-27T05:05:22.773Z,75.37
2022-07-27T05:08:28.963Z,74.84
2022-07-27T05:11:34.019Z,74.36
2022-07-27T05:14:41.134Z,73.76
2022-07-27T05:17:48.607Z,73.25
2022-07-27T05:20:54.015Z,72.07
2022-07-27T05:24:00.499Z,71.91
2022-07-27T05:27:05.731Z,71.93
2022-07-27T05:30:13.183Z,70.99
2022-07-27T05:33:19.813Z,70.80
2022-07-27T05:36:26.463Z,70.68
2022-07-27T05:39:33.120Z,68.87
2022-07-27T05:42:39.561Z,67.75
2022-07-27T05:45:44.962Z,67.75
2022-07-27T05:48:51.584Z,65.91
2022-07-27T05:51:56.524Z,64.78
2022-07-27T05:54:55.960Z,64.35
2022-07-27T05:57:55.581Z,65.15
2022-07-27T06:01:01.381Z,65.30
2022-07-27T06:04:07.984Z,63.51
2022-07-27T06:07:32.024Z,63.91
2022-07-27T06:10:38.603Z,63.11
2022-07-27T06:13:43.638Z,62.95
2022-07-27T06:16:50.748Z,62.21
2022-07-27T06:19:56.549Z,62.39
2022-07-27T06:23:09.571Z,61.33
2022-07-27T06:26:09.496Z,59.73
2022-07-27T06:29:16.185Z,58.91
2022-07-27T06:32:21.537Z,58.83
2022-07-27T06:35:30.402Z,58.95
2022-07-27T06:38:36.748Z,58.95
2022-07-27T06:41:42.174Z,58.67
2022-07-27T06:44:47.081Z,58.13
2022-07-27T06:47:52.659Z,59.09
2022-07-27T06:50:58.886Z,58.89
2022-07-27T06:54:04.546Z,58.50
2022-07-27T06:57:10.379Z,56.67
2022-07-27T07:00:16.138Z,55.59
2022-07-27T07:03:23.220Z,55.48
2022-07-27T07:06:29.697Z,55.03
2022-07-27T07:09:36.463Z,55.48
2022-07-27T07:12:43.236Z,56.19
2022-07-27T07:15:49.447Z,56.04
2022-07-27T07:18:56.154Z,56.25
2022-07-27T07:22:01.648Z,56.76
2022-07-27T07:25:06.967Z,56.70
2022-07-27T07:28:12.996Z,56.10
2022-07-27T07:31:17.925Z,55.95
2022-07-27T07:34:23.977Z,55.99
2022-07-27T07:37:33.679Z,55.23
2022-07-27T07:40:45.308Z,54.04
2022-07-27T07:43:46.234Z,53.73
2022-07-27T07:46:51.382Z,52.55
2022-07-27T07:49:57.271Z,51.66
2022-07-27T07:53:05.113Z,51.67
2022-07-27T07:56:11.240Z,51.30
2022-07-27T07:59:16.619Z,50.93
2022-07-27T08:02:23.232Z,50.00
2022-07-27T08:05:28.978Z,49.09
2022-07-27T08:08:37.064Z,48.49
2022-07-27T08:11:42.404Z,48.34
2022-07-27T08:14:48.346Z,47.70
2022-07-27T08:17:55.114Z,46.25
2022-07-27T08:21:01.860Z,46.09
2022-07-27T08:24:07.351Z,47.01
2022-07-27T08:27:15.283Z,47.00
2022-07-27T08:30:22.065Z,46.17
2022-07-27T08:33:27.680Z,46.37
2022-07-27T08:36:34.749Z,47.31
2022-07-27T08:40:37.237Z,46.45
2022-07-27T08:42:49.233Z,47.86
2022-07-27T08:45:55.755Z,48.53
2022-07-27T08:49:01.323Z,48.73
2022-07-27T08:52:09.478Z,48.95
2022-07-27T08:55:15.222Z,48.64
2022-07-27T08:58:22.545Z,48.39
2022-07-27T09:01:28.724Z,48.96
2022-07-27T09:04:33.896Z,48.35
2022-07-27T09:07:42.927Z,48.12
2022-07-27T09:10:50.117Z,47.91
2022-07-27T09:13:49.240Z,47.77
2022-07-27T09:17:44.129Z,48.21
2022-07-27T09:20:15.697Z,47.64
2022-07-27T09:23:17.697Z,47.82
2022-07-27T09:26:34.562Z,48.31
2022-07-27T09:29:33.665Z,48.16
2022-07-27T09:32:39.370Z,48.00
2022-07-27T09:35:48.008Z,47.64
2022-07-27T09:39:01.730Z,47.65
2022-07-27T09:42:04.912Z,47.44
2022-07-27T09:45:12.398Z,47.04
2022-07-27T09:48:36.022Z,46.20
2022-07-27T09:51:59.618Z,46.34
2022-07-27T09:54:58.914Z,44.93
2022-07-27T09:58:15.398Z,44.14
2022-07-27T10:01:15.309Z,44.01
2022-07-27T10:04:21.846Z,43.03
2022-07-27T10:07:29.439Z,42.71
2022-07-27T10:10:35.920Z,42.54
2022-07-27T10:13:43.743Z,43.00
2022-07-27T10:16:50.218Z,43.03
2022-07-27T10:20:02.436Z,42.36
2022-07-27T10:23:14.207Z,42.31
2022-07-27T10:26:42.016Z,42.38
2022-07-27T10:29:46.956Z,42.43
2022-07-27T10:32:53.810Z,43.36
2022-07-27T10:35:59.532Z,44.03
2022-07-27T10:39:07.333Z,43.77
2022-07-27T10:42:36.716Z,44.06
2022-07-27T10:46:01.388Z,43.98
2022-07-27T10:48:53.236Z,42.96
2022-07-27T10:51:59.856Z,42.80
2022-07-27T10:55:06.817Z,42.03
2022-07-27T10:58:35.553Z,41.79
2022-07-27T11:01:42.459Z,41.30
2022-07-27T11:04:48.011Z,40.50
2022-07-27T11:08:34.937Z,40.43
2022-07-27T11:11:03.395Z,40.13
2022-07-27T11:14:11.843Z,40.51
2022-07-27T11:20:31.276Z,40.28
2022-07-27T11:23:50.873Z,40.19
2022-07-27T11:26:48.253Z,40.59
2022-07-27T11:29:53.950Z,40.59
2022-07-27T11:33:00.424Z,40.32
2022-07-27T11:36:11.236Z,39.99
2022-07-27T11:39:28.554Z,40.04
2022-07-27T11:42:24.183Z,40.27
2022-07-27T11:45:45.805Z,40.33
2022-07-27T11:49:09.506Z,40.61
2022-07-27T11:52:02.451Z,40.61
2022-07-27T11:55:07.742Z,40.15
2022-07-27T11:58:21.437Z,40.05
2022-07-27T12:01:29.262Z,39.79
2022-07-27T12:04:49.260Z,39.79
2022-07-27T12:07:54.744Z,40.06
2022-07-27T12:11:14.257Z,38.73
2022-07-27T12:14:26.909Z,38.73
2022-07-27T12:17:42.157Z,38.70
2022-07-27T12:20:48.643Z,38.87
2022-07-27T12:24:05.989Z,38.87
2022-07-27T12:27:24.178Z,38.39
2022-07-27T12:30:28.951Z,38.73
2022-07-27T12:33:53.610Z,38.55
2022-07-27T12:36:58.174Z,38.87
2022-07-27T12:40:03.873Z,38.39
2022-07-27T12:43:18.519Z,38.78
2022-07-27T12:46:28.054Z,38.78
2022-07-27T12:49:33.161Z,38.28
2022-07-27T12:52:38.281Z,38.82
2022-07-27T12:55:43.474Z,37.70
2022-07-27T12:58:49.047Z,37.70
2022-07-27T13:01:58.527Z,37.77
2022-07-27T13:05:03.893Z,37.52
2022-07-27T13:08:11.881Z,37.72
2022-07-27T13:11:21.291Z,37.72
2022-07-27T13:14:21.201Z,37.38
2022-07-27T13:17:27.429Z,37.50
2022-07-27T13:20:33.481Z,37.66
2022-07-27T13:23:39.631Z,37.59
2022-07-27T13:26:45.038Z,37.88
2022-07-27T13:29:50.715Z,38.54
2022-07-27T13:32:55.975Z,38.54
2022-07-27T13:36:02.617Z,38.36
2022-07-27T13:39:08.249Z,38.22
2022-07-27T13:42:15.523Z,38.27
2022-07-27T13:45:21.933Z,38.21
2022-07-27T13:48:28.554Z,38.24
2022-07-27T13:51:33.654Z,38.69
2022-07-27T13:54:39.463Z,38.59
2022-07-27T13:57:45.000Z,38.62
2022-07-27T14:00:51.840Z,38.62
2022-07-27T14:03:57.694Z,38.39
2022-07-27T14:07:03.156Z,38.38
2022-07-27T14:10:26.751Z,38.68
2022-07-27T14:13:36.718Z,38.39
2022-07-27T14:16:44.503Z,38.09
2022-07-27T14:19:53.229Z,37.66
2022-07-27T14:22:59.380Z,37.30
2022-07-27T14:26:05.129Z,37.60
2022-07-27T14:29:10.901Z,37.88
2022-07-27T14:32:17.565Z,37.57
2022-07-27T14:35:24.022Z,37.53
2022-07-27T14:38:31.200Z,37.37
2022-07-27T14:41:43.949Z,37.79
2022-07-27T14:44:44.297Z,38.50
2022-07-27T14:47:50.240Z,38.11
2022-07-27T14:50:56.922Z,38.40
2022-07-27T14:54:03.089Z,37.90
2022-07-27T14:57:08.699Z,38.59
2022-07-27T15:00:16.474Z,38.29
2022-07-27T15:03:21.847Z,38.90
2022-07-27T15:06:27.327Z,38.81
2022-07-27T15:09:33.122Z,39.20
2022-07-27T15:12:39.301Z,39.39
2022-07-27T15:15:46.550Z,39.40
2022-07-27T15:18:53.105Z,39.47
2022-07-27T15:21:59.233Z,39.59
2022-07-27T15:25:05.630Z,39.75
2022-07-27T15:28:05.059Z,39.74
2022-07-27T15:31:11.095Z,39.67
2022-07-27T15:34:16.048Z,39.78
2022-07-27T15:37:21.446Z,39.68
2022-07-27T15:40:46.192Z,39.76
2022-07-27T15:43:52.006Z,39.97
2022-07-27T15:46:57.810Z,40.26
2022-07-27T15:50:03.979Z,40.80
2022-07-27T15:53:10.320Z,40.41
2022-07-27T15:56:16.902Z,40.96
2022-07-27T15:59:23.096Z,41.28
2022-07-27T16:02:32.912Z,41.51
2022-07-27T16:05:40.390Z,41.97
2022-07-27T16:08:46.148Z,41.86
2022-07-27T16:11:52.631Z,41.67
2022-07-27T16:15:00.842Z,42.17
2022-07-27T16:18:06.178Z,42.32
2022-07-27T16:21:11.935Z,42.45
2022-07-27T16:24:17.311Z,42.68
2022-07-27T16:27:23.769Z,42.86
2022-07-27T16:30:33.968Z,43.04
2022-07-27T16:33:38.530Z,43.00
2022-07-27T16:36:44.293Z,43.18
2022-07-27T16:39:51.667Z,43.35
2022-07-27T16:42:59.527Z,43.58
2022-07-27T16:46:07.113Z,43.84
2022-07-27T16:49:13.149Z,44.28
2022-07-27T16:52:20.459Z,44.49
2022-07-27T16:55:27.569Z,44.82
2022-07-27T16:58:33.640Z,45.46
2022-07-27T17:01:39.405Z,46.16
2022-07-27T17:04:45.458Z,46.02
2022-07-27T17:07:50.770Z,46.16
2022-07-27T17:10:56.293Z,47.28
2022-07-27T17:14:05.027Z,46.91
2022-07-27T17:17:12.656Z,47.16
2022-07-27T17:20:28.052Z,47.38
2022-07-27T17:23:22.758Z,47.99
2022-07-27T17:26:28.991Z,48.79
2022-07-27T17:29:35.455Z,48.80
2022-07-27T17:32:41.371Z,49.17
2022-07-27T17:35:47.911Z,49.38
2022-07-27T17:38:54.211Z,49.52
2022-07-27T17:41:53.217Z,49.87
2022-07-27T17:45:00.295Z,50.27
2022-07-27T17:48:06.654Z,50.31
2022-07-27T17:51:12.751Z,51.91
2022-07-27T17:54:18.259Z,52.49
2022-07-27T17:57:24.227Z,52.64
2022-07-27T18:00:31.166Z,51.96
2022-07-27T18:03:36.749Z,53.63
2022-07-27T18:06:42.802Z,56.14
2022-07-27T18:09:47.804Z,55.63
2022-07-27T18:12:54.636Z,54.77
2022-07-27T18:16:01.461Z,55.75
2022-07-27T18:19:09.866Z,56.44
2022-07-27T18:22:15.589Z,57.40
2022-07-27T18:25:22.350Z,57.84
2022-07-27T18:28:27.659Z,58.80
2022-07-27T18:31:34.172Z,59.32
2022-07-27T18:34:39.577Z,59.45
2022-07-27T18:37:44.770Z,59.96
2022-07-27T18:40:52.733Z,60.85
2022-07-27T18:44:01.123Z,62.44
2022-07-27T18:47:07.025Z,63.71
2022-07-27T18:50:11.897Z,64.78
2022-07-27T18:53:17.722Z,65.35
2022-07-27T18:56:23.230Z,65.91
2022-07-27T18:59:29.241Z,66.50
2022-07-27T19:02:39.076Z,66.75
2022-07-27T19:05:41.998Z,67.03
2022-07-27T19:08:48.216Z,67.64
2022-07-27T19:11:54.443Z,68.17
2022-07-27T19:15:00.635Z,69.15
2022-07-27T19:18:05.898Z,69.36
2022-07-27T19:21:12.082Z,70.11
2022-07-27T19:24:18.533Z,70.16
2022-07-27T19:27:23.986Z,69.72
2022-07-27T19:30:30.059Z,70.00
2022-07-27T19:33:37.242Z,70.81
2022-07-27T19:36:42.678Z,71.21
2022-07-27T19:39:57.502Z,71.38
2022-07-27T19:42:55.593Z,70.85
2022-07-27T19:46:00.965Z,70.64
2022-07-27T19:49:06.905Z,69.91
2022-07-27T19:52:13.223Z,69.69
2022-07-27T19:55:18.006Z,69.85
2022-07-27T19:58:25.032Z,69.69
2022-07-27T20:01:30.248Z,69.46
2022-07-27T20:07:41.504Z,69.26
2022-07-27T20:10:47.629Z,68.90
2022-07-27T20:13:55.323Z,68.62
2022-07-27T20:17:01.457Z,68.62
2022-07-27T20:20:07.743Z,68.72
2022-07-27T20:23:14.319Z,69.33
2022-07-27T20:26:21.428Z,69.61
2022-07-27T20:29:28.007Z,69.32
2022-07-27T20:32:35.560Z,69.25
2022-07-27T20:35:42.971Z,69.38
2022-07-27T20:38:48.717Z,69.48
2022-07-27T20:41:54.100Z,69.68
2022-07-27T20:45:00.189Z,69.69
2022-07-27T20:48:06.506Z,69.84
2022-07-27T20:51:12.056Z,69.84
2022-07-27T20:54:18.003Z,70.29
2022-07-27T20:57:25.750Z,70.48
2022-07-27T21:00:32.655Z,70.66
2022-07-27T21:03:38.947Z,70.87
2022-07-27T21:06:44.062Z,71.07
2022-07-27T21:09:51.020Z,71.37
2022-07-27T21:12:55.967Z,71.81
2022-07-27T21:16:02.203Z,72.24
2022-07-27T21:19:08.305Z,72.59
2022-07-27T21:22:15.430Z,72.73
2022-07-27T21:25:22.908Z,72.86
2022-07-27T21:28:29.685Z,73.11
2022-07-27T21:31:37.165Z,73.41
2022-07-27T21:34:43.235Z,73.67
2022-07-27T21:37:51.081Z,73.71
2022-07-27T21:40:56.995Z,73.80
2022-07-27T21:44:02.562Z,73.69
2022-07-27T21:47:13.492Z,73.79
2022-07-27T21:50:15.205Z,73.77
2022-07-27T21:53:21.149Z,73.96
2022-07-27T21:56:27.536Z,74.51
2022-07-27T21:59:32.368Z,74.99
2022-07-27T22:02:38.214Z,75.12
2022-07-27T22:05:43.640Z,75.27
2022-07-27T22:08:50.614Z,75.68
2022-07-27T22:11:56.780Z,76.21
2022-07-27T22:15:02.020Z,76.65
2022-07-27T22:18:07.416Z,76.95
2022-07-27T22:21:16.126Z,77.32
2022-07-27T22:24:22.790Z,77.87
2022-07-27T22:27:30.147Z,78.21
2022-07-27T22:30:36.581Z,78.32
2022-07-27T22:33:44.413Z,78.36
2022-07-27T22:36:48.921Z,78.21
2022-07-27T22:39:55.181Z,78.52
2022-07-27T22:43:02.246Z,78.73
2022-07-27T22:46:07.734Z,79.17
2022-07-27T22:49:14.367Z,79.60
2022-07-27T22:52:20.470Z,79.75
2022-07-27T22:55:26.097Z,80.08
2022-07-27T22:58:32.690Z,80.67
2022-07-27T23:01:46.590Z,80.93
2022-07-27T23:04:46.014Z,81.58
2022-07-27T23:07:50.798Z,82.01
2022-07-27T23:10:57.557Z,82.27
2022-07-27T23:14:05.292Z,82.38
2022-07-27T23:17:10.753Z,82.65
2022-07-27T23:20:19.544Z,82.90
2022-07-27T23:23:27.642Z,82.99
2022-07-27T23:26:33.179Z,83.03
2022-07-27T23:29:39.600Z,82.79
2022-07-27T23:32:46.497Z,82.99
2022-07-27T23:35:51.413Z,83.20
2022-07-27T23:38:57.218Z,83.38
2022-07-27T23:42:02.401Z,83.40
2022-07-27T23:45:08.661Z,83.44
2022-07-27T23:48:13.334Z,83.47
2022-07-27T23:51:19.272Z,83.37
2022-07-27T23:54:25.469Z,83.39
2022-07-27T23:57:30.503Z,83.28
